Time;durP1;ratioP1;P1;durP2;ratioP2;P2;SDS_P1;SDS_P2;PMS_P1;PMS_P2;Temp;Humidity;BMP_temperature;BMP_pressure;BME280_temperature;BME280_humidity;BME280_pressure;Samples;Min_cycle;Max_cycle;Signal;HPM_P1;HPM_P2
2021/03/12 06:00:43;;;;;;;;;;;;;;;;;;5056847;28;20384;-59
2021/03/12 06:03:10;;;;;;;1.75;0.22;;;;;;;;;;5072172;28;20340;-60
2021/03/12 06:05:47;;;;;;;15.90;1.05;;;;;;;;;;5069916;28;20047;-62
2021/03/12 06:08:15;;;;;;;5.70;0.43;;;;;;;;;;5070487;28;20056;-61
2021/03/12 06:10:44;;;;;;;2.00;0.70;;;;;;;;;;5070919;28;20017;-61
2021/03/12 06:13:14;;;;;;;1.65;0.57;;;;;;;;;;5070312;28;20032;-61
2021/03/12 06:15:45;;;;;;;3.88;1.58;;;;;;;;;;5064636;28;20032;-61
2021/03/12 06:18:21;;;;;;;2.75;0.52;;;;;;;;;;5083003;28;20016;-61
2021/03/12 06:20:55;;;;;;;0.13;0.13;;;;;;;;;;5070645;28;20033;-61
2021/03/12 06:23:34;;;;;;;2.45;1.17;;;;;;;;;;5070272;28;20044;-61
2021/03/12 06:26:06;;;;;;;17.15;0.73;;;;;;;;;;5070134;28;20032;-61
2021/03/12 06:28:44;;;;;;;4.55;0.52;;;;;;;;;;5070032;28;20453;-61
2021/03/12 06:31:25;;;;;;;3.00;1.15;;;;;;;;;;5070000;28;20028;-61
2021/03/12 06:34:11;;;;;;;11.70;1.35;;;;;;;;;;5054328;28;20039;-61
2021/03/12 06:37:22;;;;;;;1.02;0.38;;;;;;;;;;5052596;28;20107;-61
2021/03/12 06:39:57;;;;;;;3.05;0.45;;;;;;;;;;5050088;28;20033;-61
2021/03/12 06:42:37;;;;;;;1.17;0.55;;;;;;;;;;5064126;28;20127;-61
2021/03/12 06:45:04;;;;;;;6.50;1.00;;;;;;;;;;5069249;28;20135;-61
2021/03/12 06:47:33;;;;;;;11.40;1.02;;;;;;;;;;5068689;28;20371;-61
2021/03/12 06:50:20;;;;;;;7.00;1.00;;;;;;;;;;5066827;28;20044;-61
2021/03/12 06:52:51;;;;;;;12.20;1.73;;;;;;;;;;5068602;28;20013;-61
2021/03/12 06:55:25;;;;;;;1.35;0.30;;;;;;;;;;5068360;28;20036;-62
2021/03/12 06:58:10;;;;;;;1.65;0.47;;;;;;;;;;5063566;28;20167;-61
2021/03/12 07:00:46;;;;;;;3.67;1.23;;;;;;;;;;5037996;28;20064;-60
2021/03/12 07:03:21;;;;;;;3.03;0.73;;;;;;;;;;5047819;28;20395;-60
2021/03/12 07:06:14;;;;;;;7.93;1.98;;;;;;;;;;5051485;28;20032;-61
2021/03/12 07:08:41;;;;;;;1.13;0.40;;;;;;;;;;5044457;28;20029;-61
2021/03/12 07:11:33;;;;;;;3.00;2.17;;;;;;;;;;5025925;28;20042;-60
2021/03/12 07:14:10;;;;;;;1.63;0.98;;;;;;;;;;5008237;28;20060;-61
2021/03/12 07:16:36;;;;;;;5.25;0.93;;;;;;;;;;5023981;28;20092;-60
2021/03/12 07:19:05;;;;;;;1.27;0.55;;;;;;;;;;5029557;28;20033;-60
2021/03/12 07:21:33;;;;;;;0.80;0.50;;;;;;;;;;5005947;28;20045;-61
2021/03/12 07:24:04;;;;;;;6.30;0.45;;;;;;;;;;5010810;28;20168;-61
2021/03/12 07:26:37;;;;;;;2.13;0.68;;;;;;;;;;5011765;28;20051;-61
2021/03/12 07:29:06;;;;;;;4.80;1.48;;;;;;;;;;5026117;28;20116;-62
2021/03/12 07:31:36;;;;;;;0.10;0.10;;;;;;;;;;5024099;28;20037;-58
2021/03/12 07:34:10;;;;;;;0.60;0.40;;;;;;;;;;5010809;28;20089;-61
2021/03/12 07:36:41;;;;;;;8.10;1.38;;;;;;;;;;5011996;28;20087;-61
2021/03/12 07:39:09;;;;;;;5.53;0.80;;;;;;;;;;5012691;28;20044;-61
2021/03/12 07:41:37;;;;;;;5.25;1.20;;;;;;;;;;5007562;28;20117;-61
2021/03/12 07:44:24;;;;;;;4.57;0.95;;;;;;;;;;5009709;28;20048;-61
2021/03/12 07:47:06;;;;;;;5.88;1.00;;;;;;;;;;5012144;28;20502;-60
2021/03/12 07:49:38;;;;;;;4.85;1.02;;;;;;;;;;5049347;28;20037;-60
2021/03/12 07:52:12;;;;;;;1.33;1.05;;;;;;;;;;5048044;28;20041;-61
2021/03/12 07:54:45;;;;;;;1.48;0.55;;;;;;;;;;5048090;28;20116;-60
2021/03/12 07:57:33;;;;;;;0.40;0.30;;;;;;;;;;5048986;28;20537;-61
2021/03/12 08:00:18;;;;;;;8.20;0.60;;;;;;;;;;5050067;28;20060;-61
2021/03/12 08:03:07;;;;;;;8.80;1.17;;;;;;;;;;5051283;28;20120;-60
2021/03/12 08:06:01;;;;;;;23.55;1.85;;;;;;;;;;5050205;28;20060;-61
2021/03/12 08:08:34;;;;;;;2.92;1.08;;;;;;;;;;5049827;28;20051;-61
2021/03/12 08:11:33;;;;;;;3.75;1.27;;;;;;;;;;5023696;28;20034;-58
2021/03/12 08:14:09;;;;;;;8.60;2.75;;;;;;;;;;5024986;28;20025;-61
2021/03/12 08:16:58;;;;;;;1.15;0.38;;;;;;;;;;5005460;28;20403;-60
2021/03/12 08:19:32;;;;;;;14.18;1.85;;;;;;;;;;5025708;28;20088;-60
2021/03/12 08:22:27;;;;;;;3.05;1.15;;;;;;;;;;5007121;28;20049;-60
2021/03/12 08:24:58;;;;;;;1.30;1.23;;;;;;;;;;5006620;28;20022;-60
2021/03/12 08:27:48;;;;;;;0.35;0.30;;;;;;;;;;5022744;28;20152;-60
2021/03/12 08:30:24;;;;;;;1.38;0.25;;;;;;;;;;5004421;28;20049;-60
2021/03/12 08:32:56;;;;;;;37.28;2.83;;;;;;;;;;5023085;28;20026;-61
2021/03/12 08:35:49;;;;;;;2.83;0.20;;;;;;;;;;5023410;28;20095;-61
2021/03/12 08:38:35;;;;;;;0.20;0.20;;;;;;;;;;5025641;28;20139;-61
2021/03/12 08:41:39;;;;;;;4.97;0.55;;;;;;;;;;4969032;28;20045;-61
2021/03/12 08:44:21;;;;;;;0.20;0.20;;;;;;;;;;4967991;28;20539;-60
2021/03/12 08:47:07;;;;;;;15.10;0.60;;;;;;;;;;4968253;28;20085;-61
2021/03/12 08:49:38;;;;;;;0.73;0.57;;;;;;;;;;4966782;28;20073;-60
2021/03/12 08:52:13;;;;;;;0.90;0.50;;;;;;;;;;4972671;28;20046;-60
2021/03/12 08:54:42;;;;;;;0.73;0.22;;;;;;;;;;4988549;28;20018;-60
2021/03/12 08:57:21;;;;;;;7.25;0.88;;;;;;;;;;4973083;28;20033;-61
2021/03/12 09:00:04;;;;;;;1.48;0.50;;;;;;;;;;4988648;28;20133;-60
2021/03/12 09:03:15;;;;;;;6.43;0.40;;;;;;;;;;4983190;28;20113;-61
2021/03/12 09:05:45;;;;;;;0.20;0.20;;;;;;;;;;4988834;28;20085;-61
2021/03/12 09:08:27;;;;;;;0.15;0.15;;;;;;;;;;4969917;28;20027;-61
2021/03/12 09:11:20;;;;;;;8.55;2.50;;;;;;;;;;4986408;28;20121;-61
2021/03/12 09:13:55;;;;;;;0.25;0.25;;;;;;;;;;4986681;28;20030;-60
2021/03/12 09:16:23;;;;;;;7.07;1.08;;;;;;;;;;4985139;28;20117;-61
2021/03/12 09:18:50;;;;;;;1.92;0.73;;;;;;;;;;5026144;28;20053;-61
2021/03/12 09:21:25;;;;;;;3.38;1.30;;;;;;;;;;5045684;28;20399;-60
2021/03/12 09:23:58;;;;;;;1.13;0.13;;;;;;;;;;5048792;28;20021;-61
2021/03/12 09:26:31;;;;;;;1.17;0.30;;;;;;;;;;5048373;28;20059;-60
2021/03/12 09:29:10;;;;;;;3.35;3.15;;;;;;;;;;5047642;28;20037;-61
2021/03/12 09:31:37;;;;;;;6.05;0.70;;;;;;;;;;5044095;28;20123;-60
2021/03/12 09:34:19;;;;;;;3.83;1.65;;;;;;;;;;5048487;28;20045;-61
2021/03/12 09:37:00;;;;;;;0.45;0.45;;;;;;;;;;5048478;28;20104;-61
2021/03/12 09:39:50;;;;;;;1.45;0.60;;;;;;;;;;5044943;28;20037;-70
2021/03/12 09:42:26;;;;;;;1.10;1.10;;;;;;;;;;5045258;28;20021;-59
2021/03/12 09:45:20;;;;;;;5.75;0.73;;;;;;;;;;5049905;28;20037;-64
2021/03/12 09:47:51;;;;;;;0.10;0.10;;;;;;;;;;5053105;28;20029;-79
2021/03/12 09:50:24;;;;;;;3.77;0.93;;;;;;;;;;5047161;28;20040;-70
2021/03/12 09:53:06;;;;;;;6.78;1.73;;;;;;;;;;5045654;28;20029;-68
2021/03/12 09:55:55;;;;;;;1.30;0.90;;;;;;;;;;5025636;28;20127;-66
2021/03/12 09:58:27;;;;;;;17.50;2.42;;;;;;;;;;5006306;28;20037;-64
2021/03/12 10:01:18;;;;;;;7.25;1.85;;;;;;;;;;5008528;28;20033;-69
2021/03/12 10:03:50;;;;;;;2.90;0.57;;;;;;;;;;5013156;28;20207;-60
2021/03/12 10:07:01;;;;;;;3.92;0.55;;;;;;;;;;5023848;28;20053;-60
2021/03/12 10:09:31;;;;;;;10.43;1.85;;;;;;;;;;5004593;28;20683;-60
2021/03/12 10:12:17;;;;;;;13.57;2.05;;;;;;;;;;5010234;28;20034;-60
2021/03/12 10:14:52;;;;;;;3.75;2.08;;;;;;;;;;5005127;28;20021;-60
2021/03/12 10:17:41;;;;;;;1.58;0.68;;;;;;;;;;5009718;28;20100;-60
2021/03/12 10:20:25;;;;;;;0.80;0.43;;;;;;;;;;5023027;28;20140;-60
2021/03/12 10:22:57;;;;;;;1.10;1.05;;;;;;;;;;5023200;28;20033;-60
2021/03/12 10:25:23;;;;;;;4.00;1.23;;;;;;;;;;5025442;28;20096;-60
2021/03/12 10:27:54;;;;;;;3.88;0.93;;;;;;;;;;5024770;28;20083;-60
2021/03/12 10:30:22;;;;;;;10.52;1.25;;;;;;;;;;5026126;28;20038;-60
2021/03/12 10:32:48;;;;;;;10.32;3.90;;;;;;;;;;5035785;28;20033;-59
2021/03/12 10:35:19;;;;;;;6.80;1.85;;;;;;;;;;5048083;28;20486;-60
2021/03/12 10:37:46;;;;;;;9.77;1.55;;;;;;;;;;5050767;28;20041;-60
2021/03/12 10:40:12;;;;;;;4.88;0.73;;;;;;;;;;5050475;28;20018;-60
2021/03/12 10:42:38;;;;;;;17.80;1.08;;;;;;;;;;5051806;28;20123;-59
2021/03/12 10:45:06;;;;;;;9.48;0.90;;;;;;;;;;5053009;28;20490;-60
2021/03/12 10:47:33;;;;;;;0.70;0.30;;;;;;;;;;5049255;28;20132;-60
2021/03/12 10:49:59;;;;;;;11.07;0.63;;;;;;;;;;5048954;28;20555;-59
2021/03/12 10:52:34;;;;;;;10.80;0.90;;;;;;;;;;5050331;28;20027;-62
2021/03/12 10:55:10;;;;;;;3.58;0.47;;;;;;;;;;5050476;28;20036;-63
2021/03/12 10:57:36;;;;;;;;;;;;;;;;;;5052097;28;20025;-58
2021/03/12 11:00:02;;;;;;;;;;;;;;;;;;5053311;28;19921;-60
2021/03/12 11:02:28;;;;;;;;;;;;;;;;;;5051698;28;19919;-66
2021/03/12 11:04:54;;;;;;;;;;;;;;;;;;5051161;28;19932;-60
2021/03/12 11:07:20;;;;;;;;;;;;;;;;;;5052018;28;20015;-60
2021/03/12 11:09:46;;;;;;;;;;;;;;;;;;5050610;28;21376;-60
2021/03/12 11:12:12;;;;;;;;;;;;;;;;;;5053886;28;19915;-60
2021/03/12 11:14:38;;;;;;;;;;;;;;;;;;5052439;28;19905;-60
2021/03/12 11:17:04;;;;;;;;;;;;;;;;;;5052029;28;20437;-60
2021/03/12 11:19:30;;;;;;;;;;;;;;;;;;5051757;28;19909;-61
2021/03/12 11:21:56;;;;;;;6.38;1.00;;;;;;;;;;5050773;28;20339;-60
2021/03/12 11:24:23;;;;;;;7.18;4.88;;;;;;;;;;5051313;28;20033;-60
2021/03/12 11:26:49;;;;;;;4.65;0.75;;;;;;;;;;5052029;28;20033;-60
2021/03/12 11:29:15;;;;;;;8.73;1.13;;;;;;;;;;5050349;28;20106;-59
2021/03/12 11:31:41;;;;;;;36.63;4.43;;;;;;;;;;5050815;28;20075;-61
2021/03/12 11:34:08;;;;;;;11.52;2.60;;;;;;;;;;5050655;28;20067;-60
2021/03/12 11:36:34;;;;;;;4.07;1.05;;;;;;;;;;5050498;28;20029;-59
2021/03/12 11:39:00;;;;;;;4.65;1.13;;;;;;;;;;5051300;28;20514;-60
2021/03/12 11:41:26;;;;;;;4.22;1.90;;;;;;;;;;5049841;28;20063;-60
2021/03/12 11:43:52;;;;;;;0.70;0.40;;;;;;;;;;5050687;28;20064;-61
2021/03/12 11:46:18;;;;;;;4.88;1.25;;;;;;;;;;5049973;28;20025;-60
2021/03/12 11:48:44;;;;;;;5.82;0.80;;;;;;;;;;5051205;28;20040;-60
2021/03/12 11:51:11;;;;;;;6.93;1.77;;;;;;;;;;5051499;28;20041;-60
2021/03/12 11:53:37;;;;;;;6.85;0.93;;;;;;;;;;5049597;28;20452;-60
2021/03/12 11:56:03;;;;;;;4.82;0.60;;;;;;;;;;5049641;28;20020;-60
2021/03/12 11:58:29;;;;;;;6.53;0.80;;;;;;;;;;5050534;28;20021;-60
2021/03/12 12:00:56;;;;;;;4.55;1.00;;;;;;;;;;5050052;28;20048;-60
2021/03/12 12:03:22;;;;;;;6.65;0.85;;;;;;;;;;5051571;28;20025;-60
2021/03/12 12:05:48;;;;;;;2.75;0.90;;;;;;;;;;5050415;28;20033;-60
2021/03/12 12:08:14;;;;;;;6.32;1.08;;;;;;;;;;5048981;28;20044;-60
2021/03/12 12:10:40;;;;;;;2.90;0.73;;;;;;;;;;5049684;28;20024;-61
2021/03/12 12:13:06;;;;;;;4.78;0.98;;;;;;;;;;5050136;28;20487;-60
2021/03/12 12:15:33;;;;;;;10.55;1.58;;;;;;;;;;5049860;28;20095;-60
2021/03/12 12:18:00;;;;;;;8.75;2.00;;;;;;;;;;5051460;28;20025;-60
2021/03/12 12:20:28;;;;;;;12.75;1.42;;;;;;;;;;5049918;28;20044;-60
2021/03/12 12:22:54;;;;;;;0.75;0.70;;;;;;;;;;5047720;28;20049;-60
2021/03/12 12:25:20;;;;;;;11.15;2.88;;;;;;;;;;5047071;28;20068;-60
2021/03/12 12:27:46;;;;;;;8.93;1.08;;;;;;;;;;5048569;28;20557;-60
2021/03/12 12:30:13;;;;;;;1.35;0.20;;;;;;;;;;5049256;28;20029;-59
2021/03/12 12:32:39;;;;;;;2.15;0.50;;;;;;;;;;5048416;28;20442;-61
2021/03/12 12:35:05;;;;;;;0.35;0.35;;;;;;;;;;5049445;28;20033;-60
2021/03/12 12:37:31;;;;;;;0.77;0.55;;;;;;;;;;5049254;28;20025;-61
2021/03/12 12:39:58;;;;;;;0.80;0.55;;;;;;;;;;5049740;28;20052;-61
2021/03/12 12:42:24;;;;;;;11.13;2.80;;;;;;;;;;5049118;28;20028;-60
2021/03/12 12:44:50;;;;;;;5.68;1.55;;;;;;;;;;5049905;28;20387;-60
2021/03/12 12:47:16;;;;;;;1.33;0.68;;;;;;;;;;5048927;28;20017;-60
2021/03/12 12:49:42;;;;;;;4.85;0.88;;;;;;;;;;5048424;28;20086;-60
2021/03/12 12:52:09;;;;;;;0.10;0.10;;;;;;;;;;5048377;28;20021;-61
2021/03/12 12:54:35;;;;;;;0.43;0.43;;;;;;;;;;5048877;28;20467;-60
2021/03/12 12:57:01;;;;;;;6.68;1.92;;;;;;;;;;5048981;28;20025;-60
2021/03/12 12:59:27;;;;;;;6.68;1.02;;;;;;;;;;5048572;28;20422;-60
2021/03/12 13:01:53;;;;;;;3.60;1.63;;;;;;;;;;5048510;28;20501;-61
2021/03/12 13:04:20;;;;;;;7.40;0.75;;;;;;;;;;5046206;28;20021;-60
2021/03/12 13:06:46;;;;;;;6.55;1.33;;;;;;;;;;5048727;28;20483;-60
2021/03/12 13:09:12;;;;;;;3.50;0.80;;;;;;;;;;5050999;28;20052;-60
2021/03/12 13:11:38;;;;;;;1.73;0.68;;;;;;;;;;5048347;28;20017;-60
2021/03/12 13:14:04;;;;;;;6.32;0.65;;;;;;;;;;5048795;28;20024;-60
2021/03/12 13:16:30;;;;;;;2.75;1.00;;;;;;;;;;5047774;28;20047;-60
2021/03/12 13:18:57;;;;;;;2.60;0.47;;;;;;;;;;5050179;28;20507;-60
2021/03/12 13:21:23;;;;;;;4.72;1.10;;;;;;;;;;5049395;28;20016;-60
2021/03/12 13:23:51;;;;;;;2.40;0.70;;;;;;;;;;5049655;28;20116;-61
2021/03/12 13:26:17;;;;;;;5.97;2.17;;;;;;;;;;5048091;28;20783;-60
2021/03/12 13:28:44;;;;;;;0.10;0.10;;;;;;;;;;5048279;28;20429;-60
2021/03/12 13:31:11;;;;;;;0.20;0.20;;;;;;;;;;5048395;28;20032;-60
2021/03/12 13:33:38;;;;;;;1.08;0.47;;;;;;;;;;5047917;28;20017;-60
2021/03/12 13:36:04;;;;;;;6.70;0.40;;;;;;;;;;5050035;28;20036;-61
2021/03/12 13:38:30;;;;;;;3.50;1.23;;;;;;;;;;5048545;28;20391;-61
2021/03/12 13:40:57;;;;;;;7.28;1.02;;;;;;;;;;5047383;28;20025;-60
2021/03/12 13:43:29;;;;;;;8.70;0.80;;;;;;;;;;5048124;28;20037;-60
2021/03/12 13:45:55;;;;;;;9.90;1.23;;;;;;;;;;5047471;28;20026;-61
2021/03/12 13:48:22;;;;;;;6.45;0.63;;;;;;;;;;5049457;28;20021;-60
2021/03/12 13:50:48;;;;;;;0.15;0.15;;;;;;;;;;5048435;28;20487;-61
2021/03/12 13:53:15;;;;;;;9.55;1.77;;;;;;;;;;5047398;28;20497;-60
2021/03/12 13:55:42;;;;;;;0.10;0.10;;;;;;;;;;5045877;28;20060;-60
2021/03/12 13:58:11;;;;;;;22.00;1.77;;;;;;;;;;5047781;28;20029;-60
2021/03/12 14:00:38;;;;;;;1.27;0.60;;;;;;;;;;5047695;28;20048;-60
2021/03/12 14:03:04;;;;;;;1.88;0.45;;;;;;;;;;5049490;28;20483;-60
2021/03/12 14:05:30;;;;;;;12.20;1.13;;;;;;;;;;5047607;28;20075;-60
2021/03/12 14:07:56;;;;;;;4.95;1.00;;;;;;;;;;5048078;28;20043;-61
2021/03/12 14:10:22;;;;;;;10.40;1.92;;;;;;;;;;5046276;28;20098;-61
2021/03/12 14:12:48;;;;;;;3.40;1.67;;;;;;;;;;5052508;28;20025;-61
2021/03/12 14:15:33;;;;;;;3.92;1.27;;;;;;;;;;5048555;28;20092;-60
2021/03/12 14:18:07;;;;;;;6.90;1.30;;;;;;;;;;5049367;28;20029;-60
2021/03/12 14:20:33;;;;;;;2.15;1.13;;;;;;;;;;5050201;28;20913;-60
2021/03/12 14:22:59;;;;;;;7.75;2.53;;;;;;;;;;5049859;28;20096;-60
2021/03/12 14:25:25;;;;;;;6.97;3.03;;;;;;;;;;5050008;28;20033;-60
2021/03/12 14:28:10;;;;;;;4.30;0.60;;;;;;;;;;5048170;28;20027;-61
2021/03/12 14:30:37;;;;;;;15.90;1.25;;;;;;;;;;5048357;28;20033;-61
2021/03/12 14:33:03;;;;;;;6.32;2.60;;;;;;;;;;5051806;28;20096;-61
2021/03/12 14:35:30;;;;;;;8.10;1.63;;;;;;;;;;5049590;28;20337;-61
2021/03/12 14:37:56;;;;;;;4.05;1.50;;;;;;;;;;5049581;28;20028;-61
2021/03/12 14:40:23;;;;;;;4.40;1.38;;;;;;;;;;5046285;28;20017;-61
2021/03/12 14:42:49;;;;;;;5.03;1.85;;;;;;;;;;5049406;28;20037;-60
2021/03/12 14:45:15;;;;;;;9.77;2.63;;;;;;;;;;5050477;28;20041;-60
2021/03/12 14:48:00;;;;;;;1.27;0.65;;;;;;;;;;5051416;28;20052;-60
2021/03/12 14:50:29;;;;;;;9.05;1.48;;;;;;;;;;5049747;28;20116;-60
2021/03/12 14:52:56;;;;;;;1.10;0.88;;;;;;;;;;5049429;28;20025;-60
2021/03/12 14:55:23;;;;;;;11.73;2.97;;;;;;;;;;5049113;28;20021;-61
2021/03/12 14:57:49;;;;;;;4.97;1.58;;;;;;;;;;5049543;28;20017;-60
2021/03/12 15:00:16;;;;;;;8.50;3.85;;;;;;;;;;5048695;28;20523;-61
2021/03/12 15:02:42;;;;;;;2.58;1.25;;;;;;;;;;5045458;28;20490;-60
2021/03/12 15:05:09;;;;;;;1.38;0.80;;;;;;;;;;5050876;28;20105;-61
2021/03/12 15:07:35;;;;;;;15.10;4.32;;;;;;;;;;5050912;28;20395;-60
2021/03/12 15:10:01;;;;;;;8.82;1.23;;;;;;;;;;5049955;28;20057;-60
2021/03/12 15:12:28;;;;;;;23.42;2.75;;;;;;;;;;5051203;28;20025;-61
2021/03/12 15:14:54;;;;;;;6.70;0.85;;;;;;;;;;5050727;28;20036;-61
2021/03/12 15:17:21;;;;;;;4.25;0.80;;;;;;;;;;5051014;28;20021;-61
2021/03/12 15:19:48;;;;;;;9.23;1.50;;;;;;;;;;5050840;28;20028;-61
2021/03/12 15:22:14;;;;;;;1.17;0.93;;;;;;;;;;5050743;28;20391;-60
2021/03/12 15:24:40;;;;;;;3.42;0.70;;;;;;;;;;5051291;28;20033;-61
2021/03/12 15:27:07;;;;;;;0.20;0.20;;;;;;;;;;5052956;28;20027;-61
2021/03/12 15:29:34;;;;;;;9.85;1.13;;;;;;;;;;5050616;28;20041;-61
2021/03/12 15:32:00;;;;;;;0.10;0.10;;;;;;;;;;5050388;28;20096;-60
2021/03/12 15:34:27;;;;;;;0.43;0.43;;;;;;;;;;5047062;28;20032;-60
2021/03/12 15:36:54;;;;;;;0.60;0.50;;;;;;;;;;5049550;28;20025;-62
2021/03/12 15:39:48;;;;;;;9.23;1.40;;;;;;;;;;5048457;28;20034;-61
2021/03/12 15:42:16;;;;;;;3.78;2.65;;;;;;;;;;5050015;28;20119;-61
2021/03/12 15:44:42;;;;;;;6.60;0.63;;;;;;;;;;5050229;28;20017;-61
2021/03/12 15:47:08;;;;;;;0.30;0.30;;;;;;;;;;5050546;28;20033;-61
2021/03/12 15:49:34;;;;;;;1.02;0.65;;;;;;;;;;5050274;28;20560;-61
2021/03/12 15:52:06;;;;;;;8.40;0.52;;;;;;;;;;5046458;28;20120;-61
2021/03/12 15:54:34;;;;;;;2.72;0.70;;;;;;;;;;5046092;28;20127;-61
2021/03/12 15:57:00;;;;;;;2.60;0.85;;;;;;;;;;5046635;28;20112;-60
2021/03/12 15:59:42;;;;;;;4.70;0.30;;;;;;;;;;5045886;28;20140;-60
2021/03/12 16:02:08;;;;;;;1.65;0.68;;;;;;;;;;5040412;28;20033;-60
2021/03/12 16:04:34;;;;;;;3.53;0.30;;;;;;;;;;5033138;28;20021;-60
2021/03/12 16:07:01;;;;;;;1.98;1.85;;;;;;;;;;5031878;28;20483;-60
2021/03/12 16:09:31;;;;;;;2.20;1.20;;;;;;;;;;5028305;28;20120;-60
2021/03/12 16:11:58;;;;;;;4.57;0.88;;;;;;;;;;5036581;28;20060;-61
2021/03/12 16:14:30;;;;;;;1.75;0.82;;;;;;;;;;5032272;28;20032;-60
2021/03/12 16:16:56;;;;;;;3.17;0.35;;;;;;;;;;5034094;28;20403;-60
2021/03/12 16:19:29;;;;;;;3.75;1.00;;;;;;;;;;5030067;28;20033;-60
2021/03/12 16:22:15;;;;;;;0.35;0.25;;;;;;;;;;5035790;28;20434;-60
2021/03/12 16:24:57;;;;;;;6.28;2.83;;;;;;;;;;5029431;28;20129;-60
2021/03/12 16:27:25;;;;;;;4.13;1.92;;;;;;;;;;5031292;28;20569;-60
2021/03/12 16:29:52;;;;;;;1.67;0.50;;;;;;;;;;5035362;28;20082;-61
2021/03/12 16:32:20;;;;;;;8.30;0.95;;;;;;;;;;5043898;28;20034;-60
2021/03/12 16:34:58;;;;;;;4.43;0.60;;;;;;;;;;5031460;28;20139;-60
2021/03/12 16:37:36;;;;;;;6.07;1.45;;;;;;;;;;5031597;28;20132;-61
2021/03/12 16:40:02;;;;;;;4.40;2.20;;;;;;;;;;5030028;28;20080;-61
2021/03/12 16:42:31;;;;;;;3.42;0.90;;;;;;;;;;5035241;28;20032;-60
2021/03/12 16:44:57;;;;;;;0.40;0.17;;;;;;;;;;5031321;28;20021;-60
2021/03/12 16:47:23;;;;;;;3.40;0.93;;;;;;;;;;5030971;28;20021;-61
2021/03/12 16:49:51;;;;;;;3.40;0.43;;;;;;;;;;5029572;28;20733;-61
2021/03/12 16:52:17;;;;;;;0.20;0.20;;;;;;;;;;5030802;28;20543;-60
2021/03/12 16:54:43;;;;;;;3.10;0.82;;;;;;;;;;5035134;28;20041;-60
2021/03/12 16:57:09;;;;;;;0.40;0.40;;;;;;;;;;5031594;28;20026;-60
2021/03/12 16:59:35;;;;;;;3.97;0.60;;;;;;;;;;5035932;28;20051;-60
2021/03/12 17:02:02;;;;;;;1.90;0.75;;;;;;;;;;5035142;28;20028;-60
2021/03/12 17:04:30;;;;;;;0.52;0.38;;;;;;;;;;5026882;28;20037;-60
2021/03/12 17:06:56;;;;;;;0.35;0.30;;;;;;;;;;5035983;28;20380;-59
2021/03/12 17:09:24;;;;;;;0.50;0.40;;;;;;;;;;5030833;28;20068;-63
2021/03/12 17:11:50;;;;;;;4.53;0.25;;;;;;;;;;5032205;28;20053;-60
2021/03/12 17:14:16;;;;;;;0.30;0.30;;;;;;;;;;5030603;28;20045;-60
2021/03/12 17:16:43;;;;;;;1.45;0.55;;;;;;;;;;5027235;28;20033;-60
2021/03/12 17:19:09;;;;;;;2.35;0.32;;;;;;;;;;5027637;28;20120;-60
2021/03/12 17:21:36;;;;;;;1.27;0.65;;;;;;;;;;5029911;28;20048;-60
2021/03/12 17:24:02;;;;;;;0.40;0.40;;;;;;;;;;5029426;28;20087;-59
2021/03/12 17:26:31;;;;;;;0.85;0.30;;;;;;;;;;5032557;28;20087;-59
2021/03/12 17:28:58;;;;;;;1.48;0.73;;;;;;;;;;5029861;28;20117;-59
2021/03/12 17:31:24;;;;;;;2.30;2.10;;;;;;;;;;5027482;28;20056;-60
2021/03/12 17:33:50;;;;;;;4.75;0.90;;;;;;;;;;5028379;28;20483;-61
2021/03/12 17:36:16;;;;;;;5.43;1.70;;;;;;;;;;5028932;28;20052;-59
2021/03/12 17:38:42;;;;;;;4.18;0.20;;;;;;;;;;5031321;28;20152;-60
2021/03/12 17:41:09;;;;;;;0.50;0.50;;;;;;;;;;5028257;28;20083;-59
2021/03/12 17:43:35;;;;;;;1.60;0.60;;;;;;;;;;5029093;28;20499;-59
2021/03/12 17:46:01;;;;;;;3.50;1.08;;;;;;;;;;5028075;28;20649;-59
2021/03/12 17:48:28;;;;;;;11.55;2.17;;;;;;;;;;5040561;28;20020;-60
2021/03/12 17:50:54;;;;;;;10.85;1.33;;;;;;;;;;5044001;28;20037;-60
2021/03/12 17:53:20;;;;;;;5.68;0.93;;;;;;;;;;5042433;28;20425;-60
2021/03/12 17:55:47;;;;;;;5.93;0.73;;;;;;;;;;5041882;28;20022;-59
2021/03/12 17:58:13;;;;;;;9.52;2.08;;;;;;;;;;5033999;28;20456;-60
2021/03/12 18:00:39;;;;;;;7.00;1.05;;;;;;;;;;5044746;28;20569;-60
2021/03/12 18:03:06;;;;;;;3.83;0.60;;;;;;;;;;5045773;28;20041;-60
2021/03/12 18:05:32;;;;;;;8.25;2.33;;;;;;;;;;5045013;28;20031;-61
2021/03/12 18:07:58;;;;;;;2.15;0.60;;;;;;;;;;5046997;28;20029;-61
2021/03/12 18:10:24;;;;;;;4.10;1.08;;;;;;;;;;5046052;28;20084;-60
2021/03/12 18:12:50;;;;;;;3.95;2.28;;;;;;;;;;5047043;28;20025;-61
2021/03/12 18:15:17;;;;;;;3.47;1.20;;;;;;;;;;5046505;28;20475;-61
2021/03/12 18:17:46;;;;;;;2.63;1.45;;;;;;;;;;5046215;28;20025;-61
2021/03/12 18:20:14;;;;;;;1.85;1.08;;;;;;;;;;5046697;28;20063;-61
2021/03/12 18:22:41;;;;;;;4.50;0.80;;;;;;;;;;5048573;28;20473;-61
2021/03/12 18:25:09;;;;;;;13.93;1.88;;;;;;;;;;5046105;28;20476;-61
2021/03/12 18:27:35;;;;;;;12.52;1.48;;;;;;;;;;5048529;28;20212;-61
2021/03/12 18:30:01;;;;;;;7.47;1.92;;;;;;;;;;5048369;28;20407;-60
2021/03/12 18:32:27;;;;;;;6.13;1.08;;;;;;;;;;5046406;28;20021;-60
2021/03/12 18:34:53;;;;;;;3.03;1.30;;;;;;;;;;5046389;28;20036;-61
2021/03/12 18:37:20;;;;;;;8.30;1.05;;;;;;;;;;5046755;28;20018;-61
2021/03/12 18:39:46;;;;;;;11.93;1.25;;;;;;;;;;5046822;28;20025;-61
2021/03/12 18:42:12;;;;;;;2.53;0.57;;;;;;;;;;5050341;28;20025;-61
2021/03/12 18:44:38;;;;;;;5.70;1.48;;;;;;;;;;5048146;28;20021;-60
2021/03/12 18:47:06;;;;;;;4.75;1.42;;;;;;;;;;5046199;28;20047;-61
2021/03/12 18:49:35;;;;;;;3.97;1.27;;;;;;;;;;5045886;28;20037;-61
2021/03/12 18:52:02;;;;;;;7.40;1.42;;;;;;;;;;5032796;28;20026;-60
2021/03/12 18:54:28;;;;;;;9.38;1.42;;;;;;;;;;5048582;28;20063;-61
2021/03/12 18:56:54;;;;;;;15.98;1.67;;;;;;;;;;5049109;28;20524;-61
2021/03/12 18:59:20;;;;;;;13.43;2.90;;;;;;;;;;5049953;28;20041;-61
2021/03/12 19:01:46;;;;;;;0.90;0.17;;;;;;;;;;5049766;28;20025;-61
2021/03/12 19:04:12;;;;;;;1.50;1.23;;;;;;;;;;5050121;28;20025;-61
2021/03/12 19:06:38;;;;;;;8.57;1.30;;;;;;;;;;5050839;28;20445;-60
2021/03/12 19:09:05;;;;;;;6.50;1.77;;;;;;;;;;5042799;28;20063;-61
2021/03/12 19:11:31;;;;;;;1.60;0.80;;;;;;;;;;5043002;28;20025;-61
2021/03/12 19:13:57;;;;;;;3.78;1.35;;;;;;;;;;5042532;28;20021;-61
2021/03/12 19:16:24;;;;;;;13.55;4.45;;;;;;;;;;5036527;28;20407;-61
2021/03/12 19:18:51;;;;;;;9.85;1.40;;;;;;;;;;5033893;28;20031;-61
2021/03/12 19:21:17;;;;;;;1.55;0.63;;;;;;;;;;5044768;28;20604;-61
2021/03/12 19:23:43;;;;;;;15.88;1.45;;;;;;;;;;5035625;28;20029;-61
2021/03/12 19:26:09;;;;;;;4.60;2.70;;;;;;;;;;5038820;28;20020;-60
2021/03/12 19:28:35;;;;;;;6.93;1.42;;;;;;;;;;5042227;28;20040;-61
2021/03/12 19:31:01;;;;;;;2.85;1.15;;;;;;;;;;5040148;28;20149;-60
2021/03/12 19:33:27;;;;;;;9.20;2.10;;;;;;;;;;5037539;28;20033;-60
2021/03/12 19:35:53;;;;;;;11.85;1.60;;;;;;;;;;5045696;28;20029;-61
2021/03/12 19:38:19;;;;;;;2.45;1.08;;;;;;;;;;5033684;28;20034;-60
2021/03/12 19:40:46;;;;;;;11.65;1.90;;;;;;;;;;5038260;28;20064;-60
2021/03/12 19:43:13;;;;;;;16.05;1.40;;;;;;;;;;5033460;28;20025;-60
2021/03/12 19:45:39;;;;;;;1.50;1.20;;;;;;;;;;5039325;28;20025;-60
2021/03/12 19:48:05;;;;;;;20.00;3.05;;;;;;;;;;5042319;28;20079;-60
2021/03/12 19:50:33;;;;;;;6.22;1.67;;;;;;;;;;5034238;28;20060;-61
2021/03/12 19:52:59;;;;;;;1.85;1.25;;;;;;;;;;5032365;28;20032;-60
2021/03/12 19:55:26;;;;;;;4.50;0.73;;;;;;;;;;5031584;28;20128;-61
2021/03/12 19:57:52;;;;;;;5.47;0.50;;;;;;;;;;5032871;28;20104;-61
2021/03/12 20:00:19;;;;;;;7.10;0.77;;;;;;;;;;5047157;28;20068;-60
2021/03/12 20:02:45;;;;;;;9.00;1.90;;;;;;;;;;5034383;28;20076;-61
2021/03/12 20:05:12;;;;;;;10.57;1.60;;;;;;;;;;5028807;28;20044;-61
2021/03/12 20:07:38;;;;;;;7.18;2.05;;;;;;;;;;5026612;28;20112;-60
2021/03/12 20:10:05;;;;;;;7.18;1.80;;;;;;;;;;5026496;28;20036;-60
2021/03/12 20:12:31;;;;;;;0.22;0.22;;;;;;;;;;5028237;28;20030;-60
2021/03/12 20:14:58;;;;;;;12.68;1.10;;;;;;;;;;5030998;28;20113;-61
2021/03/12 20:17:24;;;;;;;8.18;1.48;;;;;;;;;;5029986;28;20091;-60
2021/03/12 20:19:50;;;;;;;4.00;1.15;;;;;;;;;;5030214;28;20029;-60
2021/03/12 20:22:16;;;;;;;4.43;1.40;;;;;;;;;;5031943;28;20017;-60
2021/03/12 20:24:44;;;;;;;1.83;0.57;;;;;;;;;;5028026;28;20056;-60
2021/03/12 20:27:10;;;;;;;6.65;0.80;;;;;;;;;;5029728;28;20021;-61
2021/03/12 20:29:36;;;;;;;12.27;2.80;;;;;;;;;;5029785;28;20055;-60
2021/03/12 20:32:02;;;;;;;12.82;1.20;;;;;;;;;;5030137;28;20015;-61
2021/03/12 20:34:29;;;;;;;8.25;1.15;;;;;;;;;;5029770;28;20029;-60
2021/03/12 20:36:57;;;;;;;8.90;1.52;;;;;;;;;;5029140;28;20057;-60
2021/03/12 20:39:23;;;;;;;9.85;3.50;;;;;;;;;;5029531;28;20103;-60
2021/03/12 20:41:49;;;;;;;13.90;2.78;;;;;;;;;;5032535;28;20586;-60
2021/03/12 20:44:15;;;;;;;11.50;1.00;;;;;;;;;;5032078;28;20037;-61
2021/03/12 20:46:43;;;;;;;15.90;2.42;;;;;;;;;;5030130;28;20025;-61
2021/03/12 20:49:14;;;;;;;4.57;2.58;;;;;;;;;;5031751;28;20036;-60
2021/03/12 20:51:40;;;;;;;13.30;2.03;;;;;;;;;;5027683;28;20044;-60
2021/03/12 20:54:07;;;;;;;7.93;1.55;;;;;;;;;;5029898;28;20022;-59
2021/03/12 20:56:33;;;;;;;13.18;2.58;;;;;;;;;;5031992;28;20111;-59
2021/03/12 20:58:59;;;;;;;12.25;1.85;;;;;;;;;;5044717;28;20079;-59
2021/03/12 21:01:25;;;;;;;9.68;2.00;;;;;;;;;;5048217;28;20066;-59